Kobe, Japan
Current Conditions -  °F | °C
As of 8:00 AM on Saturday 29 Nov 2014 (Local Time) from RJBE Reporting Station
Rain Showers Rain Showers  
Wind Chill: 63°   Ceiling: 1000
Heat Index: 63°   Visibility: 6mi
Dew Point: 61°   Wind: 2mph
Humidity: 94%   Direction: NA
Pressure: 29.94"   Gusts: NA
Location:  34.68°N, 135.17°E
Report Text: RJBE 282300Z VRB02KT 9999 SHRA FEW008 BKN010 FEW015CB BKN020 17/16 Q1014
Loading
Personal Weather Stations






























Interactive Weather Map New forecast layout! Learn more

10-Day Weather Forecast

Advertisements
Track Severe Weather on mobile